createdAt,value
2018-04-09T00:00:16.279Z,10.33
2018-04-09T00:01:16.432Z,10.25
2018-04-09T00:02:16.584Z,10.21
2018-04-09T00:03:16.734Z,10.06
2018-04-09T00:04:16.885Z,10.03
2018-04-09T00:05:17.039Z,9.99
2018-04-09T00:06:17.192Z,9.82
2018-04-09T00:07:17.340Z,9.96
2018-04-09T00:08:17.492Z,9.91
2018-04-09T00:09:17.642Z,9.94
2018-04-09T00:10:17.796Z,9.91
2018-04-09T00:11:17.946Z,9.94
2018-04-09T00:12:18.098Z,9.99
2018-04-09T00:13:18.250Z,10.03
2018-04-09T00:14:18.399Z,10.06
2018-04-09T00:15:18.554Z,10.04
2018-04-09T00:16:18.702Z,10.06
2018-04-09T00:17:18.853Z,10.06
2018-04-09T00:18:19.005Z,10.06
2018-04-09T00:19:19.158Z,10.10
2018-04-09T00:20:19.308Z,10.04
2018-04-09T00:21:19.461Z,10.06
2018-04-09T00:22:19.611Z,10.03
2018-04-09T00:23:19.763Z,10.07
2018-04-09T00:24:19.913Z,9.93
2018-04-09T00:25:20.062Z,10.00
2018-04-09T00:26:20.214Z,9.97
2018-04-09T00:27:20.367Z,9.99
2018-04-09T00:28:20.518Z,9.99
2018-04-09T00:29:20.671Z,9.99
2018-04-09T00:30:20.824Z,9.91
2018-04-09T00:31:20.975Z,9.94
2018-04-09T00:32:21.126Z,10.03
2018-04-09T00:33:21.278Z,10.00
2018-04-09T00:34:21.428Z,10.10
2018-04-09T00:35:21.580Z,10.10
2018-04-09T00:36:21.731Z,10.00
2018-04-09T00:37:21.884Z,9.96
2018-04-09T00:38:22.036Z,9.96
2018-04-09T00:39:22.185Z,9.96
2018-04-09T00:40:22.337Z,10.09
2018-04-09T00:41:22.488Z,9.86
2018-04-09T00:42:22.642Z,9.91
2018-04-09T00:43:22.792Z,9.79
2018-04-09T00:44:22.975Z,9.83
2018-04-09T00:45:23.096Z,9.78
2018-04-09T00:46:23.245Z,9.78
2018-04-09T00:47:23.396Z,9.83
2018-04-09T00:48:23.547Z,9.60
2018-04-09T00:49:23.696Z,9.52
2018-04-09T00:50:23.854Z,9.49
2018-04-09T00:51:24.001Z,9.50
2018-04-09T00:52:24.152Z,9.52
2018-04-09T00:53:24.302Z,9.52
2018-04-09T00:54:24.453Z,9.42
2018-04-09T00:55:24.606Z,9.40
2018-04-09T00:56:24.760Z,9.23
2018-04-09T00:57:24.905Z,9.32
2018-04-09T00:58:25.056Z,9.24
2018-04-09T00:59:25.225Z,9.24
2018-04-09T01:00:25.360Z,9.24
2018-04-09T01:01:25.511Z,9.15
2018-04-09T01:02:25.661Z,9.06
2018-04-09T01:03:25.812Z,9.13
2018-04-09T01:04:25.968Z,8.96
2018-04-09T01:05:26.118Z,8.90
2018-04-09T01:06:26.267Z,8.99
2018-04-09T01:07:26.424Z,9.01
2018-04-09T01:08:26.572Z,8.94
2018-04-09T01:09:26.721Z,8.99
2018-04-09T01:10:26.877Z,9.06
2018-04-09T01:11:27.026Z,8.96
2018-04-09T01:12:27.182Z,9.01
2018-04-09T01:13:27.328Z,9.09
2018-04-09T01:14:27.476Z,9.13
2018-04-09T01:15:27.628Z,9.27
2018-04-09T01:16:27.780Z,9.06
2018-04-09T01:17:27.930Z,9.20
2018-04-09T01:18:28.083Z,9.02
2018-04-09T01:19:28.234Z,9.09
2018-04-09T01:20:28.388Z,8.90
2018-04-09T01:21:28.535Z,8.86
2018-04-09T01:22:28.687Z,8.81
2018-04-09T01:23:28.839Z,8.79
2018-04-09T01:24:28.992Z,8.90
2018-04-09T01:25:29.141Z,8.84
2018-04-09T01:26:29.290Z,8.90
2018-04-09T01:27:29.442Z,8.84
2018-04-09T01:28:29.593Z,8.78
2018-04-09T01:29:29.746Z,8.69
2018-04-09T01:30:29.899Z,8.78
2018-04-09T01:31:30.047Z,8.71
2018-04-09T01:32:30.198Z,8.72
2018-04-09T01:33:30.352Z,8.75
2018-04-09T01:34:30.502Z,8.84
2018-04-09T01:35:30.658Z,8.83
2018-04-09T01:36:30.805Z,8.78
2018-04-09T01:37:30.953Z,8.78
2018-04-09T01:38:31.107Z,8.72
2018-04-09T01:39:31.258Z,8.71
2018-04-09T01:40:31.409Z,8.65
2018-04-09T01:41:31.566Z,8.69
2018-04-09T01:42:31.710Z,8.73
2018-04-09T01:43:31.863Z,8.87
2018-04-09T01:44:32.014Z,8.84
2018-04-09T01:45:32.164Z,8.90
2018-04-09T01:46:32.318Z,8.84
2018-04-09T01:47:32.467Z,8.91
2018-04-09T01:48:32.618Z,8.88
2018-04-09T01:49:32.770Z,8.90
2018-04-09T01:50:32.921Z,9.01
2018-04-09T01:51:33.076Z,9.05
2018-04-09T01:52:33.230Z,9.09
2018-04-09T01:53:33.372Z,9.02
2018-04-09T01:54:33.526Z,9.02
2018-04-09T01:55:33.676Z,9.12
2018-04-09T01:56:33.827Z,9.10
2018-04-09T01:57:33.978Z,9.16
2018-04-09T01:58:34.130Z,9.15
2018-04-09T01:59:34.280Z,9.24
2018-04-09T02:00:34.431Z,9.16
2018-04-09T02:01:34.583Z,8.90
2018-04-09T02:02:34.732Z,8.88
2018-04-09T02:03:34.886Z,8.90
2018-04-09T02:04:35.035Z,8.81
2018-04-09T02:05:35.188Z,8.91
2018-04-09T02:06:35.339Z,8.90
2018-04-09T02:07:35.490Z,8.97
2018-04-09T02:08:35.642Z,8.96
2018-04-09T02:09:35.792Z,8.91
2018-04-09T02:10:35.943Z,8.91
2018-04-09T02:11:36.097Z,8.87
2018-04-09T02:12:36.245Z,8.86
2018-04-09T02:13:36.396Z,8.88
2018-04-09T02:14:36.536Z,8.72
2018-04-09T02:15:36.739Z,8.69
2018-04-09T02:16:36.855Z,8.75
2018-04-09T02:17:37.005Z,8.72
2018-04-09T02:18:37.156Z,8.66
2018-04-09T02:19:37.305Z,8.68
2018-04-09T02:20:37.456Z,8.65
2018-04-09T02:21:37.609Z,8.63
2018-04-09T02:22:37.759Z,8.65
2018-04-09T02:23:37.910Z,8.66
2018-04-09T02:24:38.062Z,8.58
2018-04-09T02:25:38.211Z,8.55
2018-04-09T02:26:38.364Z,8.44
2018-04-09T02:27:38.513Z,8.42
2018-04-09T02:28:38.662Z,8.48
2018-04-09T02:29:38.816Z,8.58
2018-04-09T02:30:38.967Z,8.54
2018-04-09T02:31:39.119Z,8.66
2018-04-09T02:32:39.269Z,8.63
2018-04-09T02:33:39.421Z,8.72
2018-04-09T02:34:39.571Z,8.68
2018-04-09T02:35:39.721Z,8.66
2018-04-09T02:36:39.872Z,8.71
2018-04-09T02:37:40.022Z,8.55
2018-04-09T02:38:40.173Z,8.53
2018-04-09T02:39:40.325Z,8.44
2018-04-09T02:40:40.472Z,8.42
2018-04-09T02:41:40.625Z,8.36
2018-04-09T02:42:40.778Z,8.32
2018-04-09T02:43:40.928Z,8.28
2018-04-09T02:44:41.079Z,8.15
2018-04-09T02:45:41.230Z,8.20
2018-04-09T02:46:41.382Z,8.18
2018-04-09T02:47:41.530Z,8.17
2018-04-09T02:48:41.684Z,8.14
2018-04-09T02:49:41.832Z,8.03
2018-04-09T02:50:41.981Z,8.04
2018-04-09T02:51:42.132Z,8.00
2018-04-09T02:52:42.283Z,8.03
2018-04-09T02:53:42.433Z,7.97
2018-04-09T02:54:42.586Z,7.94
2018-04-09T02:55:42.734Z,8.08
2018-04-09T02:56:42.886Z,8.02
2018-04-09T02:57:43.037Z,8.10
2018-04-09T02:58:43.197Z,8.02
2018-04-09T02:59:43.340Z,7.87
2018-04-09T03:00:43.491Z,7.94
2018-04-09T03:01:43.642Z,7.89
2018-04-09T03:02:43.792Z,8.00
2018-04-09T03:03:43.945Z,7.92
2018-04-09T03:04:44.095Z,7.84
2018-04-09T03:05:44.246Z,7.85
2018-04-09T03:06:44.400Z,7.81
2018-04-09T03:07:44.547Z,7.78
2018-04-09T03:08:44.704Z,7.75
2018-04-09T03:09:44.860Z,7.78
2018-04-09T03:10:45.000Z,7.85
2018-04-09T03:11:45.154Z,7.89
2018-04-09T03:12:45.301Z,7.82
2018-04-09T03:13:45.453Z,7.85
2018-04-09T03:14:45.605Z,7.87
2018-04-09T03:15:45.755Z,7.90
2018-04-09T03:16:45.906Z,7.93
2018-04-09T03:17:46.056Z,7.97
2018-04-09T03:18:46.209Z,7.89
2018-04-09T03:19:46.357Z,7.82
2018-04-09T03:20:46.506Z,7.81
2018-04-09T03:21:46.656Z,7.72
2018-04-09T03:22:46.806Z,7.82
2018-04-09T03:23:46.955Z,7.78
2018-04-09T03:24:47.105Z,7.71
2018-04-09T03:25:47.258Z,7.67
2018-04-09T03:26:47.411Z,7.56
2018-04-09T03:27:47.560Z,7.53
2018-04-09T03:28:47.713Z,7.60
2018-04-09T03:29:47.864Z,7.66
2018-04-09T03:30:48.014Z,7.62
2018-04-09T03:31:48.166Z,7.50
2018-04-09T03:32:48.316Z,7.55
2018-04-09T03:33:48.466Z,7.56
2018-04-09T03:34:48.616Z,7.60
2018-04-09T03:35:48.769Z,7.63
2018-04-09T03:36:48.919Z,7.69
2018-04-09T03:37:49.069Z,7.71
2018-04-09T03:38:49.220Z,7.71
2018-04-09T03:39:49.370Z,7.58
2018-04-09T03:40:49.521Z,7.62
2018-04-09T03:41:49.673Z,7.66
2018-04-09T03:42:49.823Z,7.50
2018-04-09T03:43:49.974Z,7.47
2018-04-09T03:44:50.123Z,7.38
2018-04-09T03:45:50.274Z,7.38
2018-04-09T03:46:50.425Z,7.26
2018-04-09T03:47:50.574Z,7.31
2018-04-09T03:48:50.723Z,7.37
2018-04-09T03:49:50.875Z,7.31
2018-04-09T03:50:51.026Z,7.35
2018-04-09T03:51:51.175Z,7.44
2018-04-09T03:52:51.326Z,7.24
2018-04-09T03:53:51.476Z,7.23
2018-04-09T03:54:51.628Z,7.32
2018-04-09T03:55:51.776Z,7.19
2018-04-09T03:56:51.928Z,7.29
2018-04-09T03:57:52.076Z,7.19
2018-04-09T03:58:52.228Z,7.29
2018-04-09T03:59:52.378Z,7.31
2018-04-09T04:00:52.525Z,7.34
2018-04-09T04:01:52.681Z,7.38
2018-04-09T04:02:52.827Z,7.27
2018-04-09T04:03:52.978Z,7.34
2018-04-09T04:04:53.127Z,7.37
2018-04-09T04:05:53.277Z,7.49
2018-04-09T04:06:53.425Z,7.26
2018-04-09T04:07:53.577Z,7.27
2018-04-09T04:08:53.728Z,7.22
2018-04-09T04:09:53.880Z,7.08
2018-04-09T04:10:54.030Z,7.08
2018-04-09T04:11:54.180Z,6.99
2018-04-09T04:12:54.333Z,7.07
2018-04-09T04:13:54.481Z,6.95
2018-04-09T04:14:54.631Z,6.97
2018-04-09T04:15:54.781Z,6.98
2018-04-09T04:16:54.929Z,6.99
2018-04-09T04:17:55.080Z,7.02
2018-04-09T04:18:55.229Z,7.05
2018-04-09T04:19:55.379Z,7.07
2018-04-09T04:20:55.529Z,7.05
2018-04-09T04:21:55.679Z,7.09
2018-04-09T04:22:55.831Z,7.09
2018-04-09T04:23:56.998Z,7.07
2018-04-09T04:24:56.072Z,7.19
2018-04-09T04:25:56.223Z,7.20
2018-04-09T04:26:56.371Z,7.17
2018-04-09T04:27:56.526Z,7.19
2018-04-09T04:28:56.675Z,7.26
2018-04-09T04:29:56.825Z,7.34
2018-04-09T04:30:57.787Z,7.38
2018-04-09T04:31:57.109Z,7.24
2018-04-09T04:32:57.261Z,7.34
2018-04-09T04:33:57.413Z,7.24
2018-04-09T04:34:57.559Z,7.22
2018-04-09T04:35:57.709Z,7.17
2018-04-09T04:36:57.859Z,7.08
2018-04-09T04:37:58.010Z,7.13
2018-04-09T04:38:58.159Z,7.08
2018-04-09T04:39:58.309Z,7.08
2018-04-09T04:40:58.525Z,7.13
2018-04-09T04:41:58.612Z,7.17
2018-04-09T04:42:58.754Z,7.16
2018-04-09T04:43:58.894Z,7.22
2018-04-09T04:44:59.044Z,7.24
2018-04-09T04:45:59.232Z,7.26
2018-04-09T04:46:59.379Z,7.34
2018-04-09T04:47:59.484Z,7.27
2018-04-09T04:48:59.714Z,7.31
2018-04-09T04:49:59.798Z,7.26
2018-04-09T04:50:59.949Z,7.20
2018-04-09T04:52:00.098Z,7.16
2018-04-09T04:53:00.251Z,7.07
2018-04-09T04:54:00.401Z,7.15
2018-04-09T04:55:00.554Z,7.09
2018-04-09T04:56:00.743Z,7.19
2018-04-09T04:57:00.851Z,7.23
2018-04-09T04:58:00.999Z,7.20
2018-04-09T04:59:01.151Z,7.24
2018-04-09T05:00:01.298Z,7.31
2018-04-09T05:01:01.449Z,7.31
2018-04-09T05:02:01.599Z,7.34
2018-04-09T05:03:01.819Z,7.45
2018-04-09T05:04:01.899Z,7.44
2018-04-09T05:05:02.054Z,7.42
2018-04-09T05:06:02.265Z,7.45
2018-04-09T05:07:02.348Z,7.55
2018-04-09T05:08:02.549Z,7.53
2018-04-09T05:09:02.642Z,7.53
2018-04-09T05:10:02.791Z,7.55
2018-04-09T05:11:02.935Z,7.74
2018-04-09T05:12:03.075Z,7.52
2018-04-09T05:13:03.220Z,7.63
2018-04-09T05:14:03.368Z,7.53
2018-04-09T05:15:03.544Z,7.50
2018-04-09T05:16:03.676Z,7.55
2018-04-09T05:17:03.804Z,7.50
2018-04-09T05:18:03.965Z,7.55
2018-04-09T05:19:04.099Z,7.67
2018-04-09T05:20:04.246Z,7.78
2018-04-09T05:21:04.402Z,7.92
2018-04-09T05:22:04.546Z,8.00
2018-04-09T05:23:04.698Z,7.93
2018-04-09T05:24:04.846Z,7.89
2018-04-09T05:25:04.995Z,7.85
2018-04-09T05:26:05.139Z,7.75
2018-04-09T05:27:05.288Z,7.81
2018-04-09T05:28:05.438Z,7.84
2018-04-09T05:29:05.589Z,7.69
2018-04-09T05:30:05.739Z,7.77
2018-04-09T05:31:05.893Z,7.77
2018-04-09T05:32:06.075Z,7.66
2018-04-09T05:33:06.191Z,7.72
2018-04-09T05:34:06.342Z,7.77
2018-04-09T05:35:06.496Z,7.79
2018-04-09T05:36:06.648Z,7.74
2018-04-09T05:37:06.789Z,7.84
2018-04-09T05:38:06.948Z,7.77
2018-04-09T05:39:07.104Z,7.79
2018-04-09T05:40:07.254Z,7.81
2018-04-09T05:41:07.404Z,7.87
2018-04-09T05:42:07.555Z,7.81
2018-04-09T05:43:07.709Z,7.89
2018-04-09T05:44:07.899Z,7.85
2018-04-09T05:45:08.000Z,7.82
2018-04-09T05:46:08.368Z,7.84
2018-04-09T05:47:08.310Z,7.87
2018-04-09T05:48:08.461Z,7.78
2018-04-09T05:49:08.611Z,7.84
2018-04-09T05:50:08.749Z,7.75
2018-04-09T05:51:08.893Z,7.81
2018-04-09T05:52:09.044Z,7.84
2018-04-09T05:53:09.194Z,7.89
2018-04-09T05:54:09.350Z,8.03
2018-04-09T05:55:09.498Z,7.97
2018-04-09T05:56:09.646Z,8.08
2018-04-09T05:57:09.798Z,8.07
2018-04-09T05:58:09.951Z,8.07
2018-04-09T05:59:10.102Z,8.12
2018-04-09T06:00:10.253Z,8.12
2018-04-09T06:01:10.406Z,8.18
2018-04-09T06:02:10.563Z,8.30
2018-04-09T06:03:10.706Z,8.40
2018-04-09T06:04:10.857Z,8.47
2018-04-09T06:05:11.010Z,8.44
2018-04-09T06:06:11.160Z,8.50
2018-04-09T06:07:11.310Z,8.65
2018-04-09T06:08:11.459Z,8.69
2018-04-09T06:09:11.611Z,8.72
2018-04-09T06:10:11.764Z,8.78
2018-04-09T06:11:11.914Z,8.87
2018-04-09T06:12:12.066Z,8.87
2018-04-09T06:13:12.221Z,8.94
2018-04-09T06:14:12.369Z,9.09
2018-04-09T06:15:12.517Z,9.05
2018-04-09T06:16:12.781Z,9.21
2018-04-09T06:17:12.823Z,9.25
2018-04-09T06:18:12.972Z,9.25
2018-04-09T06:19:13.123Z,9.21
2018-04-09T06:20:13.273Z,9.13
2018-04-09T06:21:13.429Z,9.18
2018-04-09T06:22:13.576Z,9.16
2018-04-09T06:23:13.729Z,9.31
2018-04-09T06:24:13.880Z,9.23
2018-04-09T06:25:14.033Z,9.23
2018-04-09T06:26:14.188Z,9.28
2018-04-09T06:27:14.340Z,9.27
2018-04-09T06:28:14.492Z,9.43
2018-04-09T06:29:14.656Z,9.40
2018-04-09T06:30:14.790Z,9.42
2018-04-09T06:31:14.941Z,9.27
2018-04-09T06:32:15.094Z,9.21
2018-04-09T06:33:15.246Z,9.21
2018-04-09T06:34:15.394Z,9.23
2018-04-09T06:35:15.546Z,9.24
2018-04-09T06:36:15.701Z,9.30
2018-04-09T06:37:15.850Z,9.38
2018-04-09T06:38:16.001Z,9.49
2018-04-09T06:39:16.154Z,9.58
2018-04-09T06:40:16.339Z,9.61
2018-04-09T06:41:16.458Z,9.70
2018-04-09T06:42:16.609Z,9.79
2018-04-09T06:43:16.761Z,9.86
2018-04-09T06:44:16.912Z,9.91
2018-04-09T06:45:17.066Z,9.99
2018-04-09T06:46:17.220Z,9.99
2018-04-09T06:47:17.367Z,10.10
2018-04-09T06:48:17.518Z,10.12
2018-04-09T06:49:17.668Z,10.28
2018-04-09T06:50:17.818Z,10.25
2018-04-09T06:51:17.969Z,10.37
2018-04-09T06:52:18.146Z,10.42
2018-04-09T06:53:18.298Z,10.55
2018-04-09T06:54:18.453Z,10.52
2018-04-09T06:55:18.606Z,10.63
2018-04-09T06:56:18.759Z,10.70
2018-04-09T06:57:18.910Z,10.73
2018-04-09T06:58:19.062Z,10.99
2018-04-09T06:59:19.205Z,10.95
2018-04-09T07:00:19.354Z,11.01
2018-04-09T07:01:19.509Z,11.24
2018-04-09T07:02:19.662Z,11.28
2018-04-09T07:03:19.815Z,11.39
2018-04-09T07:04:19.969Z,11.41
2018-04-09T07:05:20.119Z,11.61
2018-04-09T07:06:20.275Z,11.70
2018-04-09T07:07:20.427Z,11.77
2018-04-09T07:08:20.576Z,11.67
2018-04-09T07:09:20.731Z,11.52
2018-04-09T07:10:20.886Z,11.44
2018-04-09T07:11:21.037Z,11.71
2018-04-09T07:12:21.199Z,11.59
2018-04-09T07:13:21.341Z,11.47
2018-04-09T07:14:21.494Z,11.49
2018-04-09T07:15:21.648Z,11.49
2018-04-09T07:16:21.799Z,11.49
2018-04-09T07:17:21.955Z,11.87
2018-04-09T07:18:22.107Z,12.11
2018-04-09T07:19:22.257Z,12.24
2018-04-09T07:20:22.411Z,12.33
2018-04-09T07:21:22.563Z,12.42
2018-04-09T07:22:22.723Z,12.62
2018-04-09T07:23:22.870Z,12.29
2018-04-09T07:24:23.024Z,12.44
2018-04-09T07:25:23.176Z,12.67
2018-04-09T07:26:23.331Z,12.77
2018-04-09T07:27:23.484Z,12.79
2018-04-09T07:28:23.644Z,12.92
2018-04-09T07:29:23.790Z,13.11
2018-04-09T07:30:23.940Z,13.04
2018-04-09T07:31:24.097Z,13.11
2018-04-09T07:32:24.254Z,13.22
2018-04-09T07:33:24.402Z,13.40
2018-04-09T07:34:24.555Z,13.44
2018-04-09T07:35:24.709Z,13.30
2018-04-09T07:36:24.863Z,13.22
2018-04-09T07:37:25.017Z,13.04
2018-04-09T07:38:25.202Z,12.96
2018-04-09T07:39:25.350Z,12.99
2018-04-09T07:40:25.481Z,12.89
2018-04-09T07:41:25.634Z,12.87
2018-04-09T07:42:25.789Z,13.02
2018-04-09T07:43:25.943Z,13.11
2018-04-09T07:44:26.131Z,13.24
2018-04-09T07:45:26.256Z,13.36
2018-04-09T07:46:26.408Z,13.37
2018-04-09T07:47:26.561Z,13.47
2018-04-09T07:48:26.714Z,13.43
2018-04-09T07:49:26.868Z,13.49
2018-04-09T07:50:27.020Z,13.58
2018-04-09T07:51:27.174Z,13.41
2018-04-09T07:52:27.327Z,13.37
2018-04-09T07:53:27.480Z,13.25
2018-04-09T07:54:27.635Z,13.38
2018-04-09T07:55:27.795Z,13.49
2018-04-09T07:56:27.943Z,13.49
2018-04-09T07:57:28.104Z,13.59
2018-04-09T07:58:28.251Z,13.74
2018-04-09T07:59:28.405Z,13.79
2018-04-09T08:00:28.560Z,13.83
2018-04-09T08:01:28.717Z,13.80
2018-04-09T08:02:28.870Z,13.92
2018-04-09T08:03:29.026Z,14.04
2018-04-09T08:04:29.182Z,13.98
2018-04-09T08:05:29.335Z,13.96
2018-04-09T08:06:29.490Z,13.95
2018-04-09T08:07:29.649Z,14.09
2018-04-09T08:08:29.800Z,14.16
2018-04-09T08:09:29.954Z,14.16
2018-04-09T08:10:30.107Z,14.28
2018-04-09T08:11:30.263Z,14.34
2018-04-09T08:12:30.421Z,14.56
2018-04-09T08:13:30.575Z,14.68
2018-04-09T08:14:30.736Z,14.81
2018-04-09T08:15:30.886Z,14.91
2018-04-09T08:16:31.038Z,14.72
2018-04-09T08:17:31.196Z,14.88
2018-04-09T08:18:31.355Z,14.81
2018-04-09T08:19:31.509Z,14.84
2018-04-09T08:20:31.665Z,14.93
2018-04-09T08:21:31.819Z,14.87
2018-04-09T08:22:31.974Z,14.88
2018-04-09T08:23:32.128Z,14.88
2018-04-09T08:24:32.283Z,15.01
2018-04-09T08:25:32.445Z,15.09
2018-04-09T08:26:32.692Z,15.05
2018-04-09T08:27:32.714Z,15.15
2018-04-09T08:28:32.869Z,15.15
2018-04-09T08:29:33.024Z,15.13
2018-04-09T08:30:33.179Z,15.27
2018-04-09T08:31:33.338Z,15.30
2018-04-09T08:32:33.494Z,15.30
2018-04-09T08:33:33.654Z,15.27
2018-04-09T08:34:33.883Z,15.28
2018-04-09T08:35:33.989Z,15.28
2018-04-09T08:36:34.145Z,15.57
2018-04-09T08:37:34.301Z,15.60
2018-04-09T08:38:34.461Z,15.54
2018-04-09T08:39:34.615Z,15.46
2018-04-09T08:40:34.770Z,15.46
2018-04-09T08:41:34.926Z,15.45
2018-04-09T08:42:35.083Z,15.56
2018-04-09T08:43:35.240Z,15.72
2018-04-09T08:44:35.397Z,15.57
2018-04-09T08:45:35.551Z,15.66
2018-04-09T08:46:35.706Z,15.82
2018-04-09T08:47:35.857Z,15.79
2018-04-09T08:48:36.012Z,15.96
2018-04-09T08:49:36.167Z,15.94
2018-04-09T08:50:36.325Z,16.23
2018-04-09T08:51:36.477Z,16.30
2018-04-09T08:52:36.633Z,16.23
2018-04-09T08:53:36.786Z,16.26
2018-04-09T08:54:36.941Z,16.22
2018-04-09T08:55:37.097Z,16.45
2018-04-09T08:56:37.255Z,16.55
2018-04-09T08:57:37.413Z,16.49
2018-04-09T08:58:37.566Z,16.35
2018-04-09T08:59:37.723Z,16.52
2018-04-09T09:00:37.878Z,16.60
2018-04-09T09:01:38.042Z,16.73
2018-04-09T09:02:38.192Z,16.55
2018-04-09T09:03:38.352Z,16.44
2018-04-09T09:04:38.506Z,16.59
2018-04-09T09:05:38.662Z,16.42
2018-04-09T09:06:38.819Z,16.33
2018-04-09T09:07:38.975Z,16.59
2018-04-09T09:08:39.135Z,16.48
2018-04-09T09:09:39.293Z,16.50
2018-04-09T09:10:39.447Z,16.78
2018-04-09T09:11:39.605Z,16.95
2018-04-09T09:12:39.760Z,16.77
2018-04-09T09:13:39.917Z,16.65
2018-04-09T09:14:40.077Z,16.63
2018-04-09T09:15:40.233Z,16.63
2018-04-09T09:16:40.392Z,16.55
2018-04-09T09:17:40.550Z,16.81
2018-04-09T09:18:40.708Z,16.73
2018-04-09T09:19:40.863Z,16.85
2018-04-09T09:20:41.021Z,16.92
2018-04-09T09:21:41.178Z,17.26
2018-04-09T09:22:41.336Z,17.36
2018-04-09T09:23:41.492Z,17.29
2018-04-09T09:24:41.651Z,17.46
2018-04-09T09:25:41.809Z,17.74
2018-04-09T09:26:41.963Z,17.88
2018-04-09T09:27:42.127Z,18.07
2018-04-09T09:28:42.280Z,18.04
2018-04-09T09:29:42.438Z,17.82
2018-04-09T09:30:42.594Z,17.84
2018-04-09T09:31:42.751Z,17.82
2018-04-09T09:32:42.907Z,17.85
2018-04-09T09:33:43.069Z,18.18
2018-04-09T09:34:43.223Z,18.22
2018-04-09T09:35:43.380Z,18.33
2018-04-09T09:36:43.540Z,18.59
2018-04-09T09:37:43.699Z,18.72
2018-04-09T09:38:43.854Z,18.90
2018-04-09T09:39:44.014Z,18.97
2018-04-09T09:40:44.168Z,19.10
2018-04-09T09:41:44.328Z,18.98
2018-04-09T09:42:44.484Z,18.86
2018-04-09T09:43:44.641Z,19.06
2018-04-09T09:44:44.802Z,19.20
2018-04-09T09:45:44.958Z,19.25
2018-04-09T09:46:45.116Z,19.33
2018-04-09T09:47:45.274Z,19.42
2018-04-09T09:48:45.433Z,19.58
2018-04-09T09:49:45.591Z,19.42
2018-04-09T09:50:45.749Z,19.53
2018-04-09T09:51:45.909Z,19.66
2018-04-09T09:52:46.072Z,19.55
2018-04-09T09:53:46.231Z,19.69
2018-04-09T09:54:46.388Z,19.83
2018-04-09T09:55:46.550Z,19.84
2018-04-09T09:56:46.707Z,19.84
2018-04-09T09:57:46.866Z,19.87
2018-04-09T09:58:47.026Z,19.95
2018-04-09T09:59:47.186Z,20.08
2018-04-09T10:00:47.346Z,19.97
2018-04-09T10:01:47.506Z,20.15
2018-04-09T10:02:47.664Z,20.00
2018-04-09T10:03:47.823Z,20.13
2018-04-09T10:04:47.982Z,20.08
2018-04-09T10:05:48.140Z,20.05
2018-04-09T10:06:48.301Z,20.02
2018-04-09T10:07:48.556Z,20.09
2018-04-09T10:08:48.619Z,20.00
2018-04-09T10:09:48.781Z,19.97
2018-04-09T10:10:48.937Z,19.78
2018-04-09T10:11:49.102Z,19.79
2018-04-09T10:12:49.261Z,19.61
2018-04-09T10:13:49.419Z,19.38
2018-04-09T10:14:49.579Z,19.40
2018-04-09T10:15:49.737Z,19.33
2018-04-09T10:16:49.896Z,19.42
2018-04-09T10:17:50.057Z,19.36
2018-04-09T10:18:50.214Z,19.50
2018-04-09T10:19:50.374Z,19.70
2018-04-09T10:20:50.528Z,19.86
2018-04-09T10:21:50.688Z,20.09
2018-04-09T10:22:50.845Z,20.25
2018-04-09T10:23:51.007Z,20.38
2018-04-09T10:24:51.163Z,20.49
2018-04-09T10:25:51.348Z,20.25
2018-04-09T10:26:51.484Z,19.98
2018-04-09T10:27:51.647Z,20.33
2018-04-09T10:28:51.809Z,20.38
2018-04-09T10:29:51.963Z,20.30
2018-04-09T10:30:52.123Z,20.23
2018-04-09T10:31:52.283Z,20.39
2018-04-09T10:32:52.442Z,20.56
2018-04-09T10:33:52.607Z,20.72
2018-04-09T10:34:52.763Z,20.86
2018-04-09T10:35:52.922Z,20.27
2018-04-09T10:36:53.081Z,20.23
2018-04-09T10:37:53.241Z,20.20
2018-04-09T10:38:53.401Z,20.12
2018-04-09T10:39:53.560Z,19.97
2018-04-09T10:40:53.721Z,20.31
2018-04-09T10:41:53.881Z,20.42
2018-04-09T10:42:54.039Z,20.68
2018-04-09T10:43:54.196Z,20.89
2018-04-09T10:44:54.357Z,20.89
2018-04-09T10:45:54.516Z,21.13
2018-04-09T10:46:54.675Z,21.21
2018-04-09T10:47:54.836Z,21.35
2018-04-09T10:48:54.995Z,21.67
2018-04-09T10:49:55.156Z,21.69
2018-04-09T10:50:55.326Z,21.66
2018-04-09T10:51:55.478Z,21.74
2018-04-09T10:52:55.638Z,21.45
2018-04-09T10:53:55.798Z,21.02
2018-04-09T10:54:55.959Z,20.93
2018-04-09T10:55:56.119Z,20.87
2018-04-09T10:56:56.282Z,20.81
2018-04-09T10:57:56.440Z,21.09
2018-04-09T10:58:56.603Z,21.36
2018-04-09T10:59:56.763Z,21.32
2018-04-09T11:00:56.925Z,21.30
2018-04-09T11:01:57.083Z,21.53
2018-04-09T11:02:57.245Z,21.56
2018-04-09T11:03:57.429Z,21.81
2018-04-09T11:04:57.563Z,22.07
2018-04-09T11:05:57.723Z,22.22
2018-04-09T11:06:57.884Z,22.23
2018-04-09T11:07:58.043Z,22.50
2018-04-09T11:08:58.205Z,22.69
2018-04-09T11:09:58.365Z,22.71
2018-04-09T11:10:58.525Z,22.82
2018-04-09T11:11:58.688Z,23.14
2018-04-09T11:12:58.849Z,22.68
2018-04-09T11:13:59.010Z,22.54
2018-04-09T11:14:59.172Z,22.46
2018-04-09T11:15:59.333Z,22.39
2018-04-09T11:16:59.494Z,22.23
2018-04-09T11:17:59.655Z,22.27
2018-04-09T11:18:59.815Z,22.52
2018-04-09T11:19:59.978Z,22.53
2018-04-09T11:21:00.138Z,22.28
2018-04-09T11:22:00.301Z,22.29
2018-04-09T11:23:00.465Z,22.46
2018-04-09T11:24:00.627Z,22.28
2018-04-09T11:25:00.787Z,22.32
2018-04-09T11:26:00.947Z,22.22
2018-04-09T11:27:01.109Z,22.02
2018-04-09T11:28:01.272Z,22.25
2018-04-09T11:29:01.437Z,22.34
2018-04-09T11:30:01.593Z,22.49
2018-04-09T11:31:01.755Z,22.49
2018-04-09T11:32:01.915Z,22.69
2018-04-09T11:33:02.079Z,22.83
2018-04-09T11:34:02.238Z,22.54
2018-04-09T11:35:02.402Z,22.44
2018-04-09T11:36:02.559Z,22.59
2018-04-09T11:37:02.729Z,22.78
2018-04-09T11:38:02.889Z,22.82
2018-04-09T11:39:03.048Z,22.74
2018-04-09T11:40:03.212Z,22.68
2018-04-09T11:41:03.371Z,22.60
2018-04-09T11:42:03.538Z,22.67
2018-04-09T11:43:03.691Z,22.53
2018-04-09T11:44:03.855Z,22.53
2018-04-09T11:45:04.015Z,22.50
2018-04-09T11:46:04.177Z,22.41
2018-04-09T11:47:04.341Z,22.49
2018-04-09T11:48:04.502Z,22.59
2018-04-09T11:49:04.664Z,22.57
2018-04-09T11:50:04.825Z,22.67
2018-04-09T11:51:04.986Z,22.74
2018-04-09T11:52:05.147Z,22.90
2018-04-09T11:53:05.312Z,23.04
2018-04-09T11:54:05.469Z,22.96
2018-04-09T11:55:05.630Z,23.09
2018-04-09T11:56:05.791Z,22.92
2018-04-09T11:57:05.951Z,22.87
2018-04-09T11:58:06.112Z,22.87
2018-04-09T11:59:06.277Z,23.09
2018-04-09T12:00:06.437Z,23.27
2018-04-09T12:01:06.599Z,23.45
2018-04-09T12:02:06.760Z,23.31
2018-04-09T12:03:06.923Z,23.34
2018-04-09T12:04:07.086Z,23.23
2018-04-09T12:05:07.246Z,23.09
2018-04-09T12:06:07.405Z,23.11
2018-04-09T12:07:07.567Z,23.04
2018-04-09T12:08:07.730Z,22.94
2018-04-09T12:09:07.889Z,23.04
2018-04-09T12:10:08.052Z,22.92
2018-04-09T12:11:08.214Z,22.72
2018-04-09T12:12:08.374Z,22.84
2018-04-09T12:13:08.534Z,22.86
2018-04-09T12:14:08.699Z,22.86
2018-04-09T12:15:08.854Z,22.86
2018-04-09T12:16:09.013Z,22.71
2018-04-09T12:17:09.177Z,22.71
2018-04-09T12:18:09.340Z,22.86
2018-04-09T12:19:09.500Z,22.72
2018-04-09T12:20:09.660Z,22.84
2018-04-09T12:21:09.822Z,22.93
2018-04-09T12:22:09.984Z,23.12
2018-04-09T12:23:10.146Z,23.22
2018-04-09T12:24:10.305Z,23.27
2018-04-09T12:25:10.467Z,23.52
2018-04-09T12:26:10.634Z,23.52
2018-04-09T12:27:10.798Z,23.61
2018-04-09T12:28:10.958Z,23.45
2018-04-09T12:29:11.120Z,23.68
2018-04-09T12:30:11.280Z,23.79
2018-04-09T12:31:11.440Z,23.82
2018-04-09T12:32:11.601Z,23.75
2018-04-09T12:33:11.764Z,23.60
2018-04-09T12:34:11.967Z,23.72
2018-04-09T12:35:12.088Z,23.79
2018-04-09T12:36:12.253Z,23.80
2018-04-09T12:37:12.409Z,23.90
2018-04-09T12:38:12.573Z,24.12
2018-04-09T12:39:12.737Z,23.98
2018-04-09T12:40:12.905Z,23.86
2018-04-09T12:41:13.062Z,24.04
2018-04-09T12:42:13.225Z,23.90
2018-04-09T12:43:13.386Z,23.98
2018-04-09T12:44:13.549Z,23.87
2018-04-09T12:45:13.713Z,23.94
2018-04-09T12:46:13.875Z,24.01
2018-04-09T12:47:14.040Z,23.87
2018-04-09T12:48:14.204Z,23.82
2018-04-09T12:49:14.363Z,23.90
2018-04-09T12:50:14.526Z,23.98
2018-04-09T12:51:14.690Z,24.04
2018-04-09T12:52:14.852Z,24.17
2018-04-09T12:53:15.014Z,24.14
2018-04-09T12:54:15.173Z,24.16
2018-04-09T12:55:15.337Z,24.16
2018-04-09T12:56:15.496Z,24.39
2018-04-09T12:57:15.661Z,24.29
2018-04-09T12:58:15.845Z,24.42
2018-04-09T12:59:15.977Z,24.53
2018-04-09T13:00:16.139Z,24.73
2018-04-09T13:01:16.301Z,25.02
2018-04-09T13:02:16.461Z,25.12
2018-04-09T13:03:16.625Z,25.02
2018-04-09T13:04:16.790Z,24.69
2018-04-09T13:05:16.955Z,24.61
2018-04-09T13:06:17.115Z,24.54
2018-04-09T13:07:17.281Z,24.49